Time;durP1;ratioP1;P1;durP2;ratioP2;P2;SDS_P1;SDS_P2;PMS_P1;PMS_P2;Temp;Humidity;BMP_temperature;BMP_pressure;BME280_temperature;BME280_humidity;BME280_pressure;Samples;Min_cycle;Max_cycle;Signal;HPM_P1;HPM_P2
2022/04/30 00:02:18;;;;;;;10.40;7.03;;;;;7.80;102323.00;;;;10544773;28;20197;-83
2022/04/30 00:07:20;;;;;;;10.03;7.37;;;;;7.70;102320.00;;;;10530741;28;20188;-83
2022/04/30 00:12:23;;;;;;;10.57;8.03;;;;;7.60;102310.00;;;;10514911;28;20226;-82
2022/04/30 00:17:28;;;;;;;9.20;7.00;;;;;7.50;102318.00;;;;10558887;28;20211;-83
2022/04/30 00:22:29;;;;;;;11.33;7.33;;;;;7.40;102317.00;;;;10542830;28;20192;-83
2022/04/30 00:27:31;;;;;;;14.80;7.93;;;;;7.30;102324.00;;;;10505181;28;20193;-82
2022/04/30 00:32:33;;;;;;;10.57;8.07;;;;;7.20;102325.00;;;;10520499;27;20204;-82
2022/04/30 00:37:35;;;;;;;12.90;8.37;;;;;7.20;102317.00;;;;10497746;28;20703;-83
2022/04/30 00:42:37;;;;;;;11.83;8.30;;;;;7.10;102325.00;;;;10478142;28;20224;-83
2022/04/30 00:47:42;;;;;;;11.43;7.83;;;;;7.00;102316.00;;;;10514215;28;20196;-83
2022/04/30 00:52:44;;;;;;;17.93;8.47;;;;;6.90;102312.00;;;;10513213;28;20617;-84
2022/04/30 00:57:46;;;;;;;12.07;8.43;;;;;6.80;102311.00;;;;10530853;28;20193;-85
2022/04/30 01:02:48;;;;;;;14.33;8.57;;;;;6.70;102315.00;;;;10533884;28;20184;-85
2022/04/30 01:08:12;;;;;;;16.87;8.67;;;;;6.60;102317.00;;;;10506847;28;20283;-85
2022/04/30 01:13:14;;;;;;;13.90;9.03;;;;;6.50;102319.00;;;;10531573;28;20215;-84
2022/04/30 01:18:21;;;;;;;11.30;8.67;;;;;6.50;102316.00;;;;10510200;27;20195;-84
2022/04/30 01:23:26;;;;;;;12.53;8.83;;;;;6.40;102312.00;;;;10526882;28;20189;-85
2022/04/30 01:28:28;;;;;;;15.57;8.47;;;;;6.30;102313.00;;;;10510880;28;20736;-85
2022/04/30 01:39:00;;;;;;;16.83;9.13;;;;;6.20;102308.00;;;;10528838;28;20563;-84
2022/04/30 01:44:02;;;;;;;14.20;10.10;;;;;6.10;102311.00;;;;10520379;28;20253;-84
2022/04/30 01:49:04;;;;;;;13.27;8.80;;;;;6.00;102315.00;;;;10512834;28;20216;-85
2022/04/30 01:54:06;;;;;;;15.50;8.37;;;;;6.00;102310.00;;;;10532596;27;20209;-84
2022/04/30 01:59:08;;;;;;;9.77;8.00;;;;;5.90;102307.00;;;;10520040;28;20203;-85
2022/04/30 02:04:14;;;;;;;10.73;8.30;;;;;5.90;102312.00;;;;10491188;28;20193;-85
2022/04/30 02:09:16;;;;;;;19.00;8.20;;;;;5.80;102300.00;;;;10492428;28;20205;-85
2022/04/30 02:14:18;;;;;;;14.20;7.97;;;;;5.70;102298.00;;;;10490667;28;20211;-85
2022/04/30 02:19:21;;;;;;;12.80;7.80;;;;;5.60;102296.00;;;;10542697;28;20587;-85
2022/04/30 02:24:27;;;;;;;11.83;8.50;;;;;5.60;102299.00;;;;10535720;28;20277;-85
2022/04/30 02:29:30;;;;;;;11.13;7.10;;;;;5.60;102296.00;;;;10513034;28;20201;-85
2022/04/30 02:34:35;;;;;;;14.80;8.47;;;;;5.50;102291.00;;;;10501636;28;20736;-85
2022/04/30 02:39:36;;;;;;;13.93;7.10;;;;;5.50;102300.00;;;;10495742;28;20572;-85
2022/04/30 02:44:38;;;;;;;10.27;6.87;;;;;5.40;102296.00;;;;10511162;28;20188;-84
2022/04/30 02:49:40;;;;;;;10.57;6.80;;;;;5.40;102305.00;;;;10523899;28;20238;-84
2022/04/30 02:54:42;;;;;;;15.03;7.63;;;;;5.30;102291.00;;;;10503454;28;20223;-85
2022/04/30 02:59:55;;;;;;;12.80;7.10;;;;;5.20;102288.00;;;;10531904;28;20192;-84
2022/04/30 03:05:20;;;;;;;11.40;7.13;;;;;5.20;102288.00;;;;10530612;28;20190;-85
2022/04/30 03:10:22;;;;;;;9.80;7.07;;;;;5.10;102286.00;;;;10544409;28;20185;-84
2022/04/30 03:15:27;;;;;;;9.90;6.50;;;;;5.00;102280.00;;;;10523025;28;20200;-84
2022/04/30 03:25:49;;;;;;;10.53;6.80;;;;;4.90;102292.00;;;;10535179;28;20246;-84
2022/04/30 03:30:51;;;;;;;11.07;6.80;;;;;4.80;102279.00;;;;10530568;28;20566;-84
2022/04/30 03:35:54;;;;;;;11.13;7.40;;;;;4.80;102277.00;;;;10501042;28;20208;-84
2022/04/30 03:40:57;;;;;;;13.40;7.63;;;;;4.80;102277.00;;;;10522990;28;20223;-84
2022/04/30 03:45:59;;;;;;;9.93;7.50;;;;;4.70;102283.00;;;;10522969;28;20200;-84
2022/04/30 03:51:01;;;;;;;16.73;8.27;;;;;4.70;102281.00;;;;10513600;28;20204;-84
2022/04/30 03:56:11;;;;;;;13.57;8.67;;;;;4.70;102276.00;;;;10515915;28;20723;-83
2022/04/30 04:01:15;;;;;;;11.53;7.43;;;;;4.70;102293.00;;;;10555123;28;20241;-84
2022/04/30 04:06:18;;;;;;;10.40;7.37;;;;;4.60;102281.00;;;;10529578;28;20193;-84
2022/04/30 04:11:22;;;;;;;10.90;7.83;;;;;4.60;102281.00;;;;10523770;28;20193;-84
2022/04/30 04:21:44;;;;;;;14.27;8.13;;;;;4.60;102297.00;;;;10534656;28;20211;-83
2022/04/30 04:26:46;;;;;;;20.63;8.60;;;;;4.60;102300.00;;;;10527357;28;20192;-84
2022/04/30 04:31:48;;;;;;;15.80;8.53;;;;;4.60;102296.00;;;;10533334;28;20207;-84
2022/04/30 04:36:50;;;;;;;14.80;8.07;;;;;4.70;102312.00;;;;10517332;28;20188;-84
2022/04/30 04:41:52;;;;;;;15.77;9.00;;;;;4.70;102313.00;;;;10535998;28;20212;-84
2022/04/30 04:46:54;;;;;;;12.03;8.43;;;;;4.70;102310.00;;;;10528156;28;20197;-83
2022/04/30 04:51:56;;;;;;;19.23;9.00;;;;;4.70;102309.00;;;;10518062;28;20707;-84
2022/04/30 04:56:58;;;;;;;14.63;9.10;;;;;4.80;102304.00;;;;10506571;28;20655;-84
2022/04/30 05:02:00;;;;;;;14.50;9.27;;;;;4.90;102301.00;;;;10497344;28;20204;-84
2022/04/30 05:07:02;;;;;;;13.87;9.10;;;;;5.00;102312.00;;;;10499967;28;20268;-84
2022/04/30 05:12:05;;;;;;;14.07;9.03;;;;;5.10;102319.00;;;;10530564;28;20608;-84
2022/04/30 05:17:07;;;;;;;16.90;9.57;;;;;5.30;102308.00;;;;10512951;28;20192;-84
2022/04/30 05:22:09;;;;;;;11.73;8.97;;;;;5.60;102310.00;;;;10497022;28;20189;-84
2022/04/30 05:27:11;;;;;;;19.87;9.30;;;;;6.10;102321.00;;;;10495822;28;20726;-84
2022/04/30 05:32:13;;;;;;;16.87;9.40;;;;;6.50;102314.00;;;;10500984;28;20479;-84
2022/04/30 05:37:15;;;;;;;16.70;9.57;;;;;6.80;102327.00;;;;10519499;28;20196;-85
2022/04/30 05:42:17;;;;;;;19.47;9.97;;;;;7.10;102336.00;;;;10514540;28;20213;-84
2022/04/30 05:47:19;;;;;;;16.37;9.00;;;;;7.60;102332.00;;;;10522306;28;20250;-85
2022/04/30 05:52:21;;;;;;;13.97;8.20;;;;;8.10;102331.00;;;;10525227;28;20579;-86
2022/04/30 05:57:23;;;;;;;12.70;9.20;;;;;8.60;102337.00;;;;10506660;28;20200;-85
2022/04/30 06:02:25;;;;;;;15.57;8.67;;;;;9.20;102337.00;;;;10504563;28;20720;-85
2022/04/30 06:07:27;;;;;;;12.87;8.93;;;;;9.50;102339.00;;;;10530023;28;20196;-85
2022/04/30 06:12:29;;;;;;;10.07;8.23;;;;;9.70;102341.00;;;;10511083;28;20656;-86
2022/04/30 06:17:31;;;;;;;13.33;8.27;;;;;10.00;102345.00;;;;10563972;28;20618;-87
2022/04/30 06:22:34;;;;;;;12.40;7.80;;;;;10.20;102353.00;;;;10521727;28;20639;-86
2022/04/30 06:27:36;;;;;;;12.73;8.47;;;;;10.20;102357.00;;;;10531480;28;20193;-86
2022/04/30 06:32:38;;;;;;;12.20;7.40;;;;;10.70;102353.00;;;;10520642;28;20253;-86
2022/04/30 06:37:40;;;;;;;12.93;7.17;;;;;11.30;102364.00;;;;10503171;28;20192;-84
2022/04/30 06:42:46;;;;;;;13.50;7.50;;;;;11.90;102361.00;;;;10547129;28;20212;-85
2022/04/30 06:47:48;;;;;;;11.53;7.57;;;;;12.30;102360.00;;;;10512126;28;20316;-85
2022/04/30 06:58:10;;;;;;;7.67;6.60;;;;;13.20;102372.00;;;;10526091;28;20233;-86
2022/04/30 07:03:15;;;;;;;11.63;6.23;;;;;13.60;102357.00;;;;10508587;28;20208;-85
2022/04/30 07:08:17;;;;;;;9.43;6.50;;;;;13.80;102357.00;;;;10508906;27;20202;-85
2022/04/30 07:13:19;;;;;;;9.03;6.13;;;;;14.20;102358.00;;;;10543035;28;20674;-86
2022/04/30 07:18:20;;;;;;;7.90;5.90;;;;;14.30;102368.00;;;;10525607;28;20180;-86
2022/04/30 07:23:22;;;;;;;10.63;5.60;;;;;14.10;102353.00;;;;10490266;28;20187;-86
2022/04/30 07:28:26;;;;;;;11.57;6.43;;;;;15.10;102363.00;;;;10517958;28;20295;-87
2022/04/30 07:33:28;;;;;;;6.70;4.80;;;;;15.10;102366.00;;;;10540493;28;20230;-86
2022/04/30 07:38:36;;;;;;;7.37;5.03;;;;;14.30;102367.00;;;;10519228;28;20627;-86
2022/04/30 07:43:38;;;;;;;8.63;5.13;;;;;14.10;102367.00;;;;10514029;28;20234;-86
2022/04/30 07:48:40;;;;;;;8.47;4.87;;;;;13.70;102369.00;;;;10526418;28;20196;-83
2022/04/30 07:53:43;;;;;;;10.47;5.83;;;;;13.60;102352.00;;;;10496195;28;20614;-86
2022/04/30 07:58:45;;;;;;;10.70;5.73;;;;;13.80;102367.00;;;;10512354;28;20238;-86
2022/04/30 08:03:47;;;;;;;8.17;5.43;;;;;13.70;102351.00;;;;10561907;28;20192;-86
2022/04/30 08:08:49;;;;;;;8.70;5.70;;;;;14.50;102373.00;;;;10530099;28;20230;-85
2022/04/30 08:13:51;;;;;;;9.30;5.40;;;;;14.30;102381.00;;;;10543192;28;20201;-85
2022/04/30 08:18:53;;;;;;;6.40;5.50;;;;;13.60;102366.00;;;;10538791;28;20202;-85
2022/04/30 08:23:54;;;;;;;7.27;5.87;;;;;13.70;102366.00;;;;10547031;28;20193;-86
2022/04/30 08:28:56;;;;;;;8.43;5.67;;;;;14.10;102359.00;;;;10519640;28;20203;-86
2022/04/30 08:33:58;;;;;;;7.07;5.40;;;;;14.30;102369.00;;;;10545450;28;20211;-84
2022/04/30 08:39:00;;;;;;;7.70;5.40;;;;;14.40;102360.00;;;;10527784;28;20242;-84
2022/04/30 08:44:02;;;;;;;6.30;5.70;;;;;14.80;102363.00;;;;10544793;28;20253;-85
2022/04/30 08:49:05;;;;;;;6.87;5.63;;;;;14.20;102358.00;;;;10525049;28;20215;-86
2022/04/30 08:54:07;;;;;;;10.60;6.27;;;;;13.80;102346.00;;;;10534777;28;20695;-85
2022/04/30 08:59:09;;;;;;;10.27;5.97;;;;;15.00;102335.00;;;;10524932;28;20204;-86
2022/04/30 09:04:18;;;;;;;5.47;4.60;;;;;18.50;102337.00;;;;10500027;28;20546;-84
2022/04/30 09:09:28;;;;;;;6.75;5.18;;;;;19.30;102332.00;;;;10519590;28;20193;-83
2022/04/30 09:14:30;;;;;;;7.47;5.57;;;;;18.90;102329.00;;;;10500669;28;20233;-83
2022/04/30 09:19:51;;;;;;;5.32;4.82;;;;;19.90;102329.00;;;;10511506;28;20196;-83
2022/04/30 09:24:52;;;;;;;6.47;4.70;;;;;18.10;102328.00;;;;10501752;28;20188;-84
2022/04/30 09:30:15;;;;;;;6.15;4.35;;;;;18.60;102322.00;;;;10544825;28;20686;-84
2022/04/30 09:40:39;;;;;;;6.75;4.63;;;;;18.80;102305.00;;;;10523349;28;20208;-84
2022/04/30 09:45:42;;;;;;;6.05;4.28;;;;;18.50;102310.00;;;;10533635;28;20579;-84
2022/04/30 09:56:08;;;;;;;9.32;4.35;;;;;18.40;102293.00;;;;10544696;28;20237;-84
2022/04/30 10:01:13;;;;;;;5.70;5.00;;;;;18.20;102293.00;;;;10547368;28;20200;-84
2022/04/30 10:06:16;;;;;;;8.13;5.05;;;;;18.50;102285.00;;;;10540586;28;20196;-84
2022/04/30 10:11:29;;;;;;;5.43;4.93;;;;;18.30;102275.00;;;;10539989;28;21008;-83
2022/04/30 10:16:31;;;;;;;5.68;4.65;;;;;17.90;102292.00;;;;10507220;28;20208;-84
2022/04/30 10:21:37;;;;;;;6.40;5.50;;;;;17.90;102292.00;;;;10523488;28;20723;-84
2022/04/30 10:26:58;;;;;;;10.30;7.20;;;;;16.90;102291.00;;;;10515149;28;20403;-84
2022/04/30 10:32:00;;;;;;;6.72;5.82;;;;;17.00;102298.00;;;;10508631;28;20245;-84
2022/04/30 10:37:02;;;;;;;7.00;5.77;;;;;17.80;102289.00;;;;10521341;28;20208;-85
2022/04/30 10:42:06;;;;;;;7.28;5.85;;;;;18.70;102275.00;;;;10533697;28;20208;-84
2022/04/30 10:47:12;;;;;;;10.00;6.25;;;;;18.40;102274.00;;;;10533310;28;20199;-84
2022/04/30 10:52:21;;;;;;;9.02;6.38;;;;;18.40;102268.00;;;;10489330;28;20197;-84
2022/04/30 10:57:23;;;;;;;5.83;5.23;;;;;17.90;102268.00;;;;10468738;28;20319;-83
2022/04/30 11:02:30;;;;;;;7.82;4.60;;;;;16.60;102268.00;;;;10507881;28;20188;-83
2022/04/30 11:07:32;;;;;;;4.57;3.90;;;;;15.80;102267.00;;;;10553697;28;20180;-83
2022/04/30 11:12:34;;;;;;;5.63;4.00;;;;;16.20;102262.00;;;;10536609;28;20204;-84
2022/04/30 11:17:47;;;;;;;4.37;3.80;;;;;15.70;102259.00;;;;10522136;28;20197;-84
2022/04/30 11:22:57;;;;;;;6.47;4.10;;;;;18.90;102238.00;;;;10538555;28;20577;-86
2022/04/30 11:27:59;;;;;;;4.97;4.10;;;;;21.00;102237.00;;;;10545713;28;20203;-84
2022/04/30 11:33:01;;;;;;;6.00;4.35;;;;;20.60;102226.00;;;;10506188;28;20208;-84
2022/04/30 11:38:07;;;;;;;6.90;4.00;;;;;19.30;102224.00;;;;10491834;28;20819;-84
2022/04/30 11:43:09;;;;;;;8.57;4.25;;;;;18.20;102226.00;;;;10498804;28;20250;-84
2022/04/30 11:48:17;;;;;;;4.78;4.03;;;;;18.10;102216.00;;;;10555028;28;20196;-84
2022/04/30 11:53:19;;;;;;;4.97;4.25;;;;;19.50;102205.00;;;;10514157;28;20209;-84
2022/04/30 11:58:21;;;;;;;6.45;4.07;;;;;19.70;102214.00;;;;10519828;28;20197;-84
2022/04/30 12:03:42;;;;;;;4.93;4.38;;;;;18.90;102201.00;;;;10538091;28;20220;-84
2022/04/30 12:08:44;;;;;;;4.70;4.20;;;;;19.50;102183.00;;;;10556364;28;20264;-84
2022/04/30 12:14:03;;;;;;;5.30;4.75;;;;;22.10;102183.00;;;;10511950;28;20216;-83
2022/04/30 12:24:41;;;;;;;7.20;4.78;;;;;19.30;102174.00;;;;10553205;28;20188;-84
2022/04/30 12:29:43;;;;;;;5.72;5.20;;;;;19.00;102174.00;;;;10513636;28;20188;-84
2022/04/30 12:34:46;;;;;;;5.97;4.95;;;;;17.70;102174.00;;;;10552804;28;20232;-84
2022/04/30 12:39:48;;;;;;;9.43;7.50;;;;;17.20;102165.00;;;;10518819;27;20193;-85
2022/04/30 12:44:50;;;;;;;5.65;5.13;;;;;16.40;102160.00;;;;10534240;27;20196;-84
2022/04/30 12:49:55;;;;;;;11.60;8.73;;;;;16.50;102156.00;;;;10530933;27;20206;-84
2022/04/30 12:54:57;;;;;;;7.20;5.83;;;;;17.00;102144.00;;;;10523158;28;20212;-84
2022/04/30 13:00:00;;;;;;;5.25;4.75;;;;;17.60;102145.00;;;;10549940;28;20199;-84
2022/04/30 13:05:03;;;;;;;10.00;7.25;;;;;18.20;102137.00;;;;10524963;27;20253;-85
2022/04/30 13:15:30;;;;;;;7.20;4.68;;;;;18.20;102115.00;;;;10567002;27;20760;-85
2022/04/30 13:20:32;;;;;;;6.75;4.70;;;;;20.20;102127.00;;;;10539019;28;20196;-85
2022/04/30 13:25:34;;;;;;;6.22;4.75;;;;;18.10;102118.00;;;;10545878;28;20642;-84
2022/04/30 13:30:36;;;;;;;7.28;4.68;;;;;16.60;102118.00;;;;10558343;27;20214;-84
2022/04/30 13:35:38;;;;;;;8.67;5.33;;;;;15.80;102115.00;;;;10516908;27;20269;-85
2022/04/30 13:40:40;;;;;;;6.53;4.50;;;;;15.10;102117.00;;;;10525361;28;20212;-84
2022/04/30 13:45:45;;;;;;;6.50;4.73;;;;;13.90;102122.00;;;;10539908;27;20196;-85
2022/04/30 13:50:47;;;;;;;8.47;4.93;;;;;13.30;102120.00;;;;10539126;28;20204;-85
2022/04/30 13:55:49;;;;;;;8.73;4.77;;;;;13.00;102107.00;;;;10560269;28;20200;-84
2022/04/30 14:00:51;;;;;;;9.30;5.37;;;;;12.90;102126.00;;;;10557660;28;20231;-84
2022/04/30 14:05:54;;;;;;;9.17;5.10;;;;;13.00;102130.00;;;;10527619;28;20197;-84
2022/04/30 14:10:55;;;;;;;7.87;4.67;;;;;13.20;102121.00;;;;10526901;28;20185;-84
2022/04/30 14:15:58;;;;;;;7.30;5.40;;;;;13.30;102116.00;;;;10516245;28;20630;-85
2022/04/30 14:21:03;;;;;;;8.10;4.93;;;;;13.40;102108.00;;;;10504612;28;20197;-84
2022/04/30 14:26:06;;;;;;;10.60;5.83;;;;;13.70;102112.00;;;;10517669;28;20193;-84
2022/04/30 14:31:08;;;;;;;6.83;5.17;;;;;14.00;102108.00;;;;10537786;27;20195;-84
2022/04/30 14:36:10;;;;;;;6.97;4.90;;;;;14.30;102100.00;;;;10582330;27;20211;-84
2022/04/30 14:41:12;;;;;;;7.03;5.40;;;;;14.60;102095.00;;;;10546705;28;20206;-84
2022/04/30 14:46:15;;;;;;;6.43;5.07;;;;;14.90;102091.00;;;;10537469;28;20196;-84
2022/04/30 14:51:17;;;;;;;8.80;5.33;;;;;15.10;102099.00;;;;10538021;28;20203;-85
2022/04/30 14:56:18;;;;;;;10.97;5.50;;;;;15.30;102089.00;;;;10523208;28;20691;-84
2022/04/30 15:01:22;;;;;;;6.73;5.57;;;;;15.50;102089.00;;;;10519214;28;20223;-83
2022/04/30 15:06:24;;;;;;;6.87;4.90;;;;;16.10;102076.00;;;;10538359;28;20199;-84
2022/04/30 15:11:26;;;;;;;10.13;5.20;;;;;16.70;102073.00;;;;10552388;27;20192;-85
2022/04/30 15:16:28;;;;;;;7.23;4.80;;;;;17.20;102068.00;;;;10529666;28;20325;-84
2022/04/30 15:21:31;;;;;;;8.17;5.10;;;;;17.30;102062.00;;;;10515031;28;20200;-84
2022/04/30 15:26:35;;;;;;;4.40;4.00;;;;;17.20;102057.00;;;;10536102;28;20184;-84
2022/04/30 15:31:37;;;;;;;4.47;3.60;;;;;17.20;102050.00;;;;10534397;28;20258;-84
2022/04/30 15:36:42;;;;;;;6.50;3.43;;;;;17.70;102046.00;;;;10547878;28;20204;-84
2022/04/30 15:41:44;;;;;;;8.53;3.30;;;;;17.40;102044.00;;;;10528503;28;20223;-85
2022/04/30 15:52:08;;;;;;;3.77;3.10;;;;;15.80;102047.00;;;;10542833;28;20682;-84
2022/04/30 15:57:10;;;;;;;3.67;3.20;;;;;15.60;102037.00;;;;10526877;28;20205;-84
2022/04/30 16:02:12;;;;;;;54.03;32.37;;;;;15.50;102039.00;;;;10532643;28;20597;-84
2022/04/30 16:07:15;;;;;;;7.37;3.30;;;;;15.60;102035.00;;;;10513829;28;20245;-85
2022/04/30 16:12:19;;;;;;;6.80;4.40;;;;;15.10;102035.00;;;;10558679;28;20204;-85
2022/04/30 16:17:20;;;;;;;8.60;7.07;;;;;15.10;102031.00;;;;10543898;28;20193;-84
2022/04/30 16:22:22;;;;;;;6.80;5.50;;;;;15.10;102035.00;;;;10504850;28;20280;-84
2022/04/30 16:27:27;;;;;;;5.17;3.60;;;;;14.70;102030.00;;;;10522842;28;20200;-85
2022/04/30 16:32:29;;;;;;;6.30;3.90;;;;;14.40;102033.00;;;;10541496;27;20204;-85
2022/04/30 16:37:31;;;;;;;7.80;4.40;;;;;14.10;102029.00;;;;10544639;28;20200;-84
2022/04/30 16:42:33;;;;;;;6.73;3.77;;;;;13.90;102025.00;;;;10550123;28;20219;-85
2022/04/30 16:47:35;;;;;;;7.77;4.27;;;;;13.30;102021.00;;;;10546671;27;20195;-85
2022/04/30 16:52:37;;;;;;;45.23;35.10;;;;;13.10;102026.00;;;;10526306;28;20200;-84
2022/04/30 16:57:42;;;;;;;6.93;5.10;;;;;13.00;102023.00;;;;10547316;27;20543;-85
2022/04/30 17:02:49;;;;;;;23.43;17.00;;;;;13.00;102028.00;;;;10575827;27;20605;-85
2022/04/30 17:07:56;;;;;;;7.87;5.70;;;;;12.90;102022.00;;;;10524567;28;20716;-85
2022/04/30 17:12:58;;;;;;;4.77;4.23;;;;;12.90;102018.00;;;;10536077;28;20224;-84
2022/04/30 17:18:00;;;;;;;6.63;4.60;;;;;12.80;102025.00;;;;10523500;28;20208;-85
2022/04/30 17:23:03;;;;;;;11.00;9.87;;;;;12.80;102016.00;;;;10527498;28;20203;-85
2022/04/30 17:28:06;;;;;;;13.83;5.43;;;;;12.70;102016.00;;;;10542307;28;20234;-85
2022/04/30 17:38:28;;;;;;;4.73;3.80;;;;;12.40;102021.00;;;;10550867;27;20191;-85
2022/04/30 17:43:30;;;;;;;8.07;6.27;;;;;12.30;102024.00;;;;10541392;28;20662;-85
2022/04/30 17:48:32;;;;;;;7.90;4.90;;;;;12.30;102016.00;;;;10572040;28;20233;-85
2022/04/30 17:53:37;;;;;;;6.30;5.40;;;;;12.20;102025.00;;;;10551437;28;20208;-85
2022/04/30 17:58:39;;;;;;;8.23;4.63;;;;;12.10;102022.00;;;;10547398;27;20282;-85
2022/04/30 18:03:41;;;;;;;6.30;4.37;;;;;12.00;102017.00;;;;10559515;28;20276;-85
2022/04/30 18:08:44;;;;;;;6.83;4.57;;;;;12.00;102020.00;;;;10511520;28;20212;-85
2022/04/30 18:13:47;;;;;;;15.47;11.73;;;;;12.00;102020.00;;;;10542769;28;20224;-85
2022/04/30 18:18:49;;;;;;;10.87;6.37;;;;;11.90;102018.00;;;;10532654;28;20238;-85
2022/04/30 18:23:51;;;;;;;27.40;19.03;;;;;11.90;102013.00;;;;10531390;28;20178;-85
2022/04/30 18:28:54;;;;;;;13.40;10.03;;;;;11.90;102020.00;;;;10498642;28;20266;-84
2022/04/30 18:33:56;;;;;;;12.50;7.07;;;;;11.80;102011.00;;;;10560413;28;20205;-84
2022/04/30 18:38:58;;;;;;;14.10;8.77;;;;;11.70;102005.00;;;;10526309;27;20196;-84
2022/04/30 18:44:00;;;;;;;25.60;14.00;;;;;11.60;102012.00;;;;10553265;28;22583;-84
2022/04/30 18:49:04;;;;;;;4.90;4.07;;;;;11.50;102021.00;;;;10557549;27;20260;-85
2022/04/30 19:04:48;;;;;;;5.13;3.60;;;;;11.00;102039.00;;;;10529679;27;20195;-84
2022/04/30 19:09:50;;;;;;;7.33;3.93;;;;;10.90;102038.00;;;;10555370;28;20288;-84
2022/04/30 19:14:54;;;;;;;9.13;4.53;;;;;10.90;102033.00;;;;10522685;28;20326;-85
2022/04/30 19:19:56;;;;;;;6.80;3.40;;;;;10.80;102028.00;;;;10576020;28;20612;-84
2022/04/30 19:24:58;;;;;;;13.20;7.73;;;;;10.80;102037.00;;;;10535876;28;20218;-84
2022/04/30 19:30:00;;;;;;;9.63;3.63;;;;;10.70;102030.00;;;;10535521;28;20202;-85
2022/04/30 19:35:04;;;;;;;7.07;3.70;;;;;10.60;102029.00;;;;10559017;28;20267;-85
2022/04/30 19:40:07;;;;;;;5.00;4.23;;;;;10.50;102029.00;;;;10556882;28;20256;-85
2022/04/30 19:45:12;;;;;;;9.33;3.77;;;;;10.40;102032.00;;;;10597102;28;20188;-85
2022/04/30 19:50:15;;;;;;;8.00;4.03;;;;;10.30;102024.00;;;;10555356;28;20211;-85
2022/04/30 19:55:17;;;;;;;7.87;3.70;;;;;10.20;102026.00;;;;10552203;28;20209;-84
2022/04/30 20:00:20;;;;;;;7.00;4.17;;;;;10.20;102036.00;;;;10567473;27;20196;-84
2022/04/30 20:05:22;;;;;;;10.90;4.20;;;;;10.10;102038.00;;;;10551354;28;20192;-84
2022/04/30 20:21:05;;;;;;;7.90;4.50;;;;;9.80;102025.00;;;;10580684;27;20694;-83
2022/04/30 20:26:07;;;;;;;8.10;4.77;;;;;9.70;102033.00;;;;10525388;28;20197;-84
2022/04/30 20:36:39;;;;;;;7.47;4.70;;;;;9.50;102040.00;;;;10612093;27;20196;-83
2022/04/30 20:41:42;;;;;;;7.53;5.70;;;;;9.40;102032.00;;;;10575272;27;20217;-84
2022/04/30 20:46:51;;;;;;;6.07;5.27;;;;;9.30;102038.00;;;;10542596;28;20215;-84
2022/04/30 20:51:53;;;;;;;10.87;6.30;;;;;9.20;102036.00;;;;10588413;27;20226;-84
2022/04/30 20:56:55;;;;;;;9.63;5.63;;;;;9.10;102037.00;;;;10594146;27;20212;-84
2022/04/30 21:01:58;;;;;;;10.40;5.53;;;;;9.00;102041.00;;;;10559300;28;20192;-84
2022/04/30 21:07:03;;;;;;;9.23;6.17;;;;;8.90;102039.00;;;;10550907;27;20208;-84
2022/04/30 21:12:06;;;;;;;11.30;5.77;;;;;8.80;102032.00;;;;10555236;27;20188;-84
2022/04/30 21:17:08;;;;;;;7.80;5.73;;;;;8.80;102033.00;;;;10544797;28;20201;-84
2022/04/30 21:22:11;;;;;;;10.20;5.60;;;;;8.60;102028.00;;;;10545745;28;20202;-83
2022/04/30 21:27:20;;;;;;;10.03;6.57;;;;;8.50;102028.00;;;;10543954;27;20203;-84
2022/04/30 21:32:22;;;;;;;12.80;6.30;;;;;8.50;102038.00;;;;10578244;27;20189;-84
2022/04/30 21:37:25;;;;;;;8.33;6.33;;;;;8.40;102039.00;;;;10558856;28;20200;-84
2022/04/30 21:42:29;;;;;;;10.40;6.40;;;;;8.40;102020.00;;;;10542269;28;20225;-84
2022/04/30 21:47:35;;;;;;;7.37;5.90;;;;;8.30;102024.00;;;;10579644;27;20196;-84
2022/04/30 21:52:37;;;;;;;8.90;6.23;;;;;8.20;102024.00;;;;10543148;28;20287;-84
2022/04/30 22:02:59;;;;;;;9.90;6.73;;;;;7.90;102029.00;;;;10573808;28;20268;-84
2022/04/30 22:08:01;;;;;;;11.70;9.30;;;;;7.80;102034.00;;;;10557746;28;20191;-84
2022/04/30 22:13:04;;;;;;;12.30;8.00;;;;;7.70;102026.00;;;;10554858;28;20650;-84
2022/04/30 22:18:06;;;;;;;9.97;8.00;;;;;7.60;102031.00;;;;10526681;27;20204;-83
2022/04/30 22:23:09;;;;;;;12.10;8.13;;;;;7.40;102024.00;;;;10539756;28;20192;-83
2022/04/30 22:28:11;;;;;;;8.40;7.37;;;;;7.30;102026.00;;;;10529629;28;20193;-83
2022/04/30 22:33:13;;;;;;;13.67;8.40;;;;;7.20;102016.00;;;;10524027;28;20226;-83
2022/04/30 22:38:15;;;;;;;11.37;8.63;;;;;7.10;102021.00;;;;10520164;28;20284;-83
2022/04/30 22:43:17;;;;;;;10.13;9.00;;;;;6.90;102013.00;;;;10556125;28;20231;-83
2022/04/30 22:48:21;;;;;;;10.77;8.73;;;;;6.80;102017.00;;;;10554467;28;20185;-83
2022/04/30 22:53:23;;;;;;;14.03;9.40;;;;;6.70;102020.00;;;;10555757;28;20185;-83
2022/04/30 22:58:25;;;;;;;14.07;10.27;;;;;6.60;102024.00;;;;10582234;27;20196;-83
2022/04/30 23:03:27;;;;;;;16.47;10.80;;;;;6.50;102026.00;;;;10536543;28;20193;-84
2022/04/30 23:08:30;;;;;;;13.77;10.43;;;;;6.40;102016.00;;;;10513631;28;20189;-83
2022/04/30 23:13:32;;;;;;;15.07;10.60;;;;;6.30;102024.00;;;;10489793;28;20189;-84
2022/04/30 23:18:34;;;;;;;14.97;11.40;;;;;6.20;102020.00;;;;10513997;28;20216;-84
2022/04/30 23:23:36;;;;;;;17.83;11.63;;;;;6.10;102016.00;;;;10517737;28;20258;-83
2022/04/30 23:28:38;;;;;;;15.73;12.73;;;;;6.00;102020.00;;;;10549274;28;20208;-84
2022/04/30 23:33:40;;;;;;;18.10;13.10;;;;;5.90;102016.00;;;;10522735;28;20230;-83
2022/04/30 23:38:42;;;;;;;18.97;13.83;;;;;5.90;102013.00;;;;10552405;28;20589;-84
2022/04/30 23:43:44;;;;;;;17.27;12.90;;;;;5.80;102008.00;;;;10526579;28;20242;-83
2022/04/30 23:48:47;;;;;;;17.83;13.60;;;;;5.60;102012.00;;;;10510195;28;20196;-83
2022/04/30 23:53:50;;;;;;;15.67;13.63;;;;;5.60;102002.00;;;;10536139;28;20214;-83
2022/04/30 23:58:52;;;;;;;19.43;15.47;;;;;5.50;101998.00;;;;10560494;27;20215;-83
